Terminal Aerodrome Forecast
Issued by NWS Norman, OK

Home | Current Version | Previous Version | Text Only | Print | Product List | Glossary On
Versions: 1 2 3 4 5 6 7 8 9 10 11 12 13
000
FTUS44 KOUN 210250 AAA
TAFOKC
TAF AMD
KOKC 210250Z 2103/2124 16012KT P6SM SCT060 BKN250
      TEMPO 2103/2106 VRB40KT 4SM TSRA BKN050CB
     FM211400 18015G22KT P6SM SCT030=

USA.gov is the U.S. government's official web portal to all federal, state and local government web resources and services.